Time;durP1;ratioP1;P1;durP2;ratioP2;P2;SDS_P1;SDS_P2;PMS_P1;PMS_P2;Temp;Humidity;BMP_temperature;BMP_pressure;BME280_temperature;BME280_humidity;BME280_pressure;Samples;Min_cycle;Max_cycle;Signal;HPM_P1;HPM_P2
2022/09/12 00:00:27;;;;;;;386.83;219.50;;;;;;;;;;4959647;28;20213;-51
2022/09/12 00:02:53;;;;;;;334.87;190.27;;;;;;;;;;4972793;28;20552;-51
2022/09/12 00:05:19;;;;;;;335.23;192.45;;;;;;;;;;4970206;28;20217;-51
2022/09/12 00:07:45;;;;;;;302.17;178.27;;;;;;;;;;4972528;28;20201;-51
2022/09/12 00:10:11;;;;;;;313.35;186.82;;;;;;;;;;4969429;28;20182;-51
2022/09/12 00:12:37;;;;;;;341.83;192.27;;;;;;;;;;4957044;28;20190;-51
2022/09/12 00:15:03;;;;;;;335.00;193.13;;;;;;;;;;4964975;28;20214;-51
2022/09/12 00:17:29;;;;;;;330.97;185.97;;;;;;;;;;4968504;28;20221;-51
2022/09/12 00:19:55;;;;;;;305.43;170.80;;;;;;;;;;4965133;28;20445;-51
2022/09/12 00:22:21;;;;;;;346.10;189.13;;;;;;;;;;4959677;28;20618;-51
2022/09/12 00:24:47;;;;;;;327.23;181.93;;;;;;;;;;4966804;28;20532;-51
2022/09/12 00:27:13;;;;;;;308.60;169.80;;;;;;;;;;4963195;28;20543;-51
2022/09/12 00:29:39;;;;;;;324.70;182.17;;;;;;;;;;4965364;28;20202;-51
2022/09/12 00:32:05;;;;;;;277.20;160.90;;;;;;;;;;4971193;28;20205;-51
2022/09/12 00:34:31;;;;;;;300.27;172.23;;;;;;;;;;4970093;28;20671;-51
2022/09/12 00:36:57;;;;;;;352.07;197.90;;;;;;;;;;4958501;28;20186;-51
2022/09/12 00:39:23;;;;;;;300.93;170.50;;;;;;;;;;4968198;28;20244;-51
2022/09/12 00:41:49;;;;;;;294.43;168.27;;;;;;;;;;4967084;28;20272;-51
2022/09/12 00:44:15;;;;;;;367.43;203.80;;;;;;;;;;4956326;28;20706;-51
2022/09/12 00:46:43;;;;;;;365.63;201.03;;;;;;;;;;4963742;28;20416;-51
2022/09/12 00:49:21;;;;;;;291.47;167.27;;;;;;;;;;4965581;28;20237;-51
2022/09/12 00:51:52;;;;;;;352.40;193.33;;;;;;;;;;4955198;28;20216;-51
2022/09/12 00:54:20;;;;;;;334.65;180.70;;;;;;;;;;4958985;28;20754;-51
2022/09/12 00:56:47;;;;;;;299.33;177.30;;;;;;;;;;4970121;28;20190;-51
2022/09/12 00:59:17;;;;;;;315.57;181.87;;;;;;;;;;4957621;28;20245;-51
2022/09/12 01:01:44;;;;;;;348.40;197.40;;;;;;;;;;4964103;28;20691;-51
2022/09/12 01:04:11;;;;;;;306.90;177.53;;;;;;;;;;4957003;28;20435;-51
2022/09/12 01:06:39;;;;;;;303.47;170.93;;;;;;;;;;4963096;28;20520;-51
2022/09/12 01:09:07;;;;;;;335.90;191.07;;;;;;;;;;4962773;28;20269;-51
2022/09/12 01:11:38;;;;;;;359.23;199.37;;;;;;;;;;4957297;28;21232;-51
2022/09/12 01:14:04;;;;;;;314.63;182.43;;;;;;;;;;4964453;28;20638;-51
2022/09/12 01:16:30;;;;;;;315.17;183.23;;;;;;;;;;4965361;28;20200;-51
2022/09/12 01:18:59;;;;;;;321.57;188.33;;;;;;;;;;4957854;28;20289;-51
2022/09/12 01:21:44;;;;;;;332.13;189.73;;;;;;;;;;4961178;28;20278;-51
2022/09/12 01:24:29;;;;;;;317.30;179.90;;;;;;;;;;4963130;28;20906;-51
2022/09/12 01:27:09;;;;;;;361.13;204.83;;;;;;;;;;4960250;28;20559;-51
2022/09/12 01:29:40;;;;;;;301.33;174.30;;;;;;;;;;4963992;28;20189;-51
2022/09/12 01:32:25;;;;;;;350.37;193.77;;;;;;;;;;4959668;28;20182;-51
2022/09/12 01:35:01;;;;;;;338.13;187.67;;;;;;;;;;4958190;28;20268;-51
2022/09/12 01:37:48;;;;;;;314.37;176.20;;;;;;;;;;4955025;28;20754;-51
2022/09/12 01:40:27;;;;;;;334.57;186.73;;;;;;;;;;4964354;28;20316;-51
2022/09/12 01:43:02;;;;;;;282.37;160.77;;;;;;;;;;4963859;28;20198;-50
2022/09/12 01:45:31;;;;;;;309.43;177.20;;;;;;;;;;4963007;28;20241;-51
2022/09/12 01:48:00;;;;;;;315.77;178.03;;;;;;;;;;4970610;28;20193;-51
2022/09/12 01:50:31;;;;;;;305.20;169.43;;;;;;;;;;4962459;28;20281;-50
2022/09/12 01:53:07;;;;;;;276.93;156.80;;;;;;;;;;4965832;28;20852;-50
2022/09/12 01:55:40;;;;;;;298.53;172.97;;;;;;;;;;4964772;28;21761;-50
2022/09/12 01:58:12;;;;;;;316.50;176.37;;;;;;;;;;4954374;28;20559;-50
2022/09/12 02:00:43;;;;;;;307.17;175.27;;;;;;;;;;4958381;28;20626;-50
2022/09/12 02:03:12;;;;;;;319.30;168.57;;;;;;;;;;4987148;23;20233;-50
2022/09/12 02:05:50;;;;;;;257.70;143.40;;;;;;;;;;4978709;28;20693;-51
2022/09/12 02:08:27;;;;;;;244.40;135.47;;;;;;;;;;4972350;28;20178;-51
2022/09/12 02:10:55;;;;;;;248.77;138.40;;;;;;;;;;4973181;28;20208;-51
2022/09/12 02:13:22;;;;;;;268.80;145.17;;;;;;;;;;4976704;28;20174;-51
2022/09/12 02:15:54;;;;;;;253.77;140.13;;;;;;;;;;4974078;28;20260;-51
2022/09/12 02:18:24;;;;;;;297.52;157.65;;;;;;;;;;4975965;28;20692;-50
2022/09/12 02:20:51;;;;;;;281.67;150.67;;;;;;;;;;4970068;28;20234;-51
2022/09/12 02:23:20;;;;;;;253.00;141.03;;;;;;;;;;4978140;28;20197;-51
2022/09/12 02:25:48;;;;;;;274.40;148.80;;;;;;;;;;4975159;28;20217;-50
2022/09/12 02:28:17;;;;;;;279.90;146.73;;;;;;;;;;4975819;28;20189;-51
2022/09/12 02:30:45;;;;;;;248.50;139.63;;;;;;;;;;4981814;28;20189;-51
2022/09/12 02:33:18;;;;;;;281.37;151.03;;;;;;;;;;4978532;28;20589;-51
2022/09/12 02:35:47;;;;;;;268.50;146.33;;;;;;;;;;4971727;28;20232;-51
2022/09/12 02:38:15;;;;;;;273.53;147.37;;;;;;;;;;4974273;28;20578;-51
2022/09/12 02:40:41;;;;;;;290.33;157.30;;;;;;;;;;4977619;28;20217;-51
2022/09/12 02:43:07;;;;;;;267.00;147.33;;;;;;;;;;4978610;28;20653;-50
2022/09/12 02:45:34;;;;;;;245.17;138.27;;;;;;;;;;4975323;28;20220;-52
2022/09/12 02:48:12;;;;;;;281.97;148.83;;;;;;;;;;4971608;28;20191;-51
2022/09/12 02:50:38;;;;;;;254.67;139.20;;;;;;;;;;4979406;28;20665;-51
2022/09/12 02:53:06;;;;;;;313.00;163.07;;;;;;;;;;4973241;28;20198;-51
2022/09/12 02:55:33;;;;;;;291.43;153.80;;;;;;;;;;4979490;28;20379;-51
2022/09/12 02:58:03;;;;;;;307.73;162.47;;;;;;;;;;4977696;28;20181;-50
2022/09/12 03:00:39;;;;;;;280.17;149.30;;;;;;;;;;4981408;28;20233;-51
2022/09/12 03:03:17;;;;;;;259.10;143.00;;;;;;;;;;4978384;28;20196;-51
2022/09/12 03:05:47;;;;;;;302.93;160.23;;;;;;;;;;4976609;28;20217;-51
2022/09/12 03:08:15;;;;;;;281.00;147.70;;;;;;;;;;4978803;28;20186;-50
2022/09/12 03:10:53;;;;;;;273.50;145.40;;;;;;;;;;4978021;28;20185;-51
2022/09/12 03:13:34;;;;;;;270.73;144.87;;;;;;;;;;4976425;28;20185;-51
2022/09/12 03:16:11;;;;;;;253.33;138.97;;;;;;;;;;4978388;28;20202;-51
2022/09/12 03:18:53;;;;;;;285.77;150.33;;;;;;;;;;4973735;28;20190;-50
2022/09/12 03:21:21;;;;;;;271.53;145.50;;;;;;;;;;4978020;28;20178;-51
2022/09/12 03:24:06;;;;;;;344.87;177.80;;;;;;;;;;4970302;28;20262;-53
2022/09/12 03:26:37;;;;;;;321.33;162.30;;;;;;;;;;4963176;28;20210;-53
2022/09/12 03:29:05;;;;;;;278.57;149.47;;;;;;;;;;4971064;28;20302;-51
2022/09/12 03:31:31;;;;;;;267.73;144.20;;;;;;;;;;4979000;28;20781;-52
2022/09/12 03:33:58;;;;;;;269.07;143.63;;;;;;;;;;4984394;28;20558;-52
2022/09/12 03:36:26;;;;;;;276.47;146.77;;;;;;;;;;4978282;28;20635;-52
2022/09/12 03:38:52;;;;;;;266.30;141.27;;;;;;;;;;4982992;28;20236;-52
2022/09/12 03:41:18;;;;;;;289.33;154.17;;;;;;;;;;4980027;28;20193;-51
2022/09/12 03:43:45;;;;;;;277.83;146.83;;;;;;;;;;4985824;28;20267;-52
2022/09/12 03:46:11;;;;;;;260.23;139.43;;;;;;;;;;4980357;28;20657;-52
2022/09/12 03:48:37;;;;;;;289.10;152.93;;;;;;;;;;4981993;28;20197;-52
2022/09/12 03:51:04;;;;;;;263.33;143.93;;;;;;;;;;4979472;28;20190;-51
2022/09/12 03:53:31;;;;;;;274.00;145.30;;;;;;;;;;4982039;28;20182;-52
2022/09/12 03:55:57;;;;;;;293.33;151.83;;;;;;;;;;4980370;28;20190;-52
2022/09/12 03:58:23;;;;;;;242.07;128.83;;;;;;;;;;4978119;28;20193;-51
2022/09/12 04:00:49;;;;;;;261.97;136.40;;;;;;;;;;4982988;28;20545;-51
2022/09/12 04:03:18;;;;;;;271.17;139.07;;;;;;;;;;4986924;28;20252;-51
2022/09/12 04:05:44;;;;;;;301.53;151.40;;;;;;;;;;4979317;28;20220;-51
2022/09/12 04:08:09;;;;;;;286.23;145.83;;;;;;;;;;4983187;28;20212;-52
2022/09/12 04:10:35;;;;;;;261.57;134.60;;;;;;;;;;4977634;28;20256;-52
2022/09/12 04:13:01;;;;;;;267.07;137.93;;;;;;;;;;4975956;28;20181;-52
2022/09/12 04:15:27;;;;;;;264.70;136.80;;;;;;;;;;4985385;28;20229;-52
2022/09/12 04:17:53;;;;;;;257.07;134.40;;;;;;;;;;4982173;28;20276;-51
2022/09/12 04:20:19;;;;;;;252.00;130.03;;;;;;;;;;4980831;28;20914;-52
2022/09/12 04:22:45;;;;;;;261.17;135.87;;;;;;;;;;4978143;28;20193;-52
2022/09/12 04:25:12;;;;;;;263.80;136.17;;;;;;;;;;4977692;28;20243;-52
2022/09/12 04:27:38;;;;;;;263.27;134.37;;;;;;;;;;4981685;28;20187;-52
2022/09/12 04:30:04;;;;;;;318.87;151.80;;;;;;;;;;4978679;28;20542;-52
2022/09/12 04:32:31;;;;;;;322.63;154.93;;;;;;;;;;4983575;28;20296;-52
2022/09/12 04:34:57;;;;;;;299.73;147.17;;;;;;;;;;4979971;28;20810;-52
2022/09/12 04:37:23;;;;;;;313.73;159.03;;;;;;;;;;4975622;28;20458;-52
2022/09/12 04:39:49;;;;;;;299.83;152.93;;;;;;;;;;4982455;28;20273;-51
2022/09/12 04:42:15;;;;;;;299.30;147.43;;;;;;;;;;4982758;28;20186;-52
2022/09/12 04:44:41;;;;;;;280.50;138.97;;;;;;;;;;4982310;28;20355;-52
2022/09/12 04:47:07;;;;;;;310.77;155.03;;;;;;;;;;4978412;28;20209;-50
2022/09/12 04:49:33;;;;;;;289.53;142.50;;;;;;;;;;4980622;28;20662;-52
2022/09/12 04:51:59;;;;;;;301.47;147.20;;;;;;;;;;4983324;28;20179;-52
2022/09/12 04:54:26;;;;;;;314.63;155.50;;;;;;;;;;4982621;28;20202;-52
2022/09/12 04:56:54;;;;;;;305.70;155.07;;;;;;;;;;4981017;28;20185;-52
2022/09/12 04:59:20;;;;;;;274.30;137.47;;;;;;;;;;4991571;28;20182;-53
2022/09/12 05:01:47;;;;;;;272.10;136.77;;;;;;;;;;4972422;28;20198;-52
2022/09/12 05:04:13;;;;;;;286.00;144.43;;;;;;;;;;4972098;28;20197;-52
2022/09/12 05:06:40;;;;;;;279.10;144.73;;;;;;;;;;4971940;28;20206;-53
2022/09/12 05:09:07;;;;;;;276.73;139.73;;;;;;;;;;4972054;28;20177;-53
2022/09/12 05:11:37;;;;;;;305.23;155.83;;;;;;;;;;4976627;28;20201;-53
2022/09/12 05:14:03;;;;;;;288.40;149.13;;;;;;;;;;4991181;28;20535;-53
2022/09/12 05:16:30;;;;;;;291.80;145.37;;;;;;;;;;4990932;28;20181;-53
2022/09/12 05:18:57;;;;;;;271.93;136.53;;;;;;;;;;4991335;28;20272;-53
2022/09/12 05:21:23;;;;;;;283.67;143.20;;;;;;;;;;4991257;28;20269;-53
2022/09/12 05:23:52;;;;;;;292.00;145.47;;;;;;;;;;4989258;28;20285;-53
2022/09/12 05:26:20;;;;;;;292.63;147.90;;;;;;;;;;4990403;28;20209;-52
2022/09/12 05:28:47;;;;;;;278.43;143.00;;;;;;;;;;4991185;28;20228;-53
2022/09/12 05:31:14;;;;;;;286.70;148.10;;;;;;;;;;4990466;28;20508;-53
2022/09/12 05:33:42;;;;;;;310.90;153.90;;;;;;;;;;4990421;28;20704;-53
2022/09/12 05:36:25;;;;;;;308.33;150.70;;;;;;;;;;4989369;28;20182;-52
2022/09/12 05:38:51;;;;;;;304.67;149.63;;;;;;;;;;4990714;28;20228;-53
2022/09/12 05:41:18;;;;;;;275.13;140.93;;;;;;;;;;4990841;28;20192;-53
2022/09/12 05:43:46;;;;;;;295.27;144.77;;;;;;;;;;4990029;28;20194;-53
2022/09/12 05:46:13;;;;;;;295.60;149.07;;;;;;;;;;4990571;28;20205;-53
2022/09/12 05:48:40;;;;;;;306.77;161.10;;;;;;;;;;4990004;28;20185;-52
2022/09/12 05:51:07;;;;;;;251.20;134.27;;;;;;;;;;4990919;28;20235;-53
2022/09/12 05:53:34;;;;;;;286.80;146.47;;;;;;;;;;4990465;28;20661;-53
2022/09/12 05:56:11;;;;;;;284.80;143.53;;;;;;;;;;4990719;28;20340;-53
2022/09/12 05:58:38;;;;;;;294.70;149.53;;;;;;;;;;4990555;28;20193;-53
2022/09/12 06:01:06;;;;;;;282.83;146.40;;;;;;;;;;4990845;28;20182;-52
2022/09/12 06:03:32;;;;;;;295.93;153.20;;;;;;;;;;4990127;28;20670;-53
2022/09/12 06:06:01;;;;;;;296.63;154.73;;;;;;;;;;4990248;28;20259;-53
2022/09/12 06:08:27;;;;;;;349.90;175.53;;;;;;;;;;4989299;28;20205;-51
2022/09/12 06:10:58;;;;;;;383.15;199.55;;;;;;;;;;4987068;28;20916;-52
2022/09/12 06:13:24;;;;;;;352.77;176.70;;;;;;;;;;4989584;28;20162;-53
2022/09/12 06:15:50;;;;;;;338.97;172.67;;;;;;;;;;4990205;28;20169;-52
2022/09/12 06:18:16;;;;;;;329.33;166.63;;;;;;;;;;4989671;28;20475;-53
2022/09/12 06:20:42;;;;;;;311.43;161.27;;;;;;;;;;4990022;28;20656;-53
2022/09/12 06:23:07;;;;;;;315.03;162.53;;;;;;;;;;4990218;28;20184;-52
2022/09/12 06:25:33;;;;;;;307.90;159.97;;;;;;;;;;4989775;28;20554;-53
2022/09/12 06:28:00;;;;;;;313.20;152.90;;;;;;;;;;4990123;28;20182;-52
2022/09/12 06:30:26;;;;;;;306.57;153.50;;;;;;;;;;4990126;28;20174;-51
2022/09/12 06:32:52;;;;;;;313.50;155.93;;;;;;;;;;4989363;28;20197;-53
2022/09/12 06:35:18;;;;;;;313.97;158.23;;;;;;;;;;4989599;28;20256;-53
2022/09/12 06:37:44;;;;;;;296.93;147.70;;;;;;;;;;4990109;28;20565;-53
2022/09/12 06:40:11;;;;;;;333.27;165.93;;;;;;;;;;4989729;28;20185;-55
2022/09/12 06:42:37;;;;;;;334.53;162.27;;;;;;;;;;4989194;28;20582;-53
2022/09/12 06:45:03;;;;;;;319.40;156.93;;;;;;;;;;4989642;28;20240;-53
2022/09/12 06:47:29;;;;;;;316.73;155.03;;;;;;;;;;4989752;28;20677;-53
2022/09/12 06:49:55;;;;;;;333.63;163.70;;;;;;;;;;4979951;28;20182;-51
2022/09/12 06:52:20;;;;;;;337.70;165.40;;;;;;;;;;4980855;28;20277;-51
2022/09/12 06:54:46;;;;;;;334.20;164.37;;;;;;;;;;4985392;28;20317;-51
2022/09/12 06:57:12;;;;;;;345.03;173.40;;;;;;;;;;4982972;28;20200;-49
2022/09/12 06:59:38;;;;;;;342.87;172.37;;;;;;;;;;4981387;28;20186;-51
2022/09/12 07:02:06;;;;;;;356.73;177.40;;;;;;;;;;4980366;28;20217;-50
2022/09/12 07:04:34;;;;;;;338.80;170.33;;;;;;;;;;4982211;28;20232;-50
2022/09/12 07:07:00;;;;;;;344.47;169.40;;;;;;;;;;4981804;28;20183;-50
2022/09/12 07:09:26;;;;;;;357.10;181.73;;;;;;;;;;4980468;28;20415;-51
2022/09/12 07:11:52;;;;;;;355.70;177.30;;;;;;;;;;4983515;28;20209;-50
2022/09/12 07:14:18;;;;;;;347.57;170.83;;;;;;;;;;4978353;28;20208;-51
2022/09/12 07:16:44;;;;;;;332.53;163.87;;;;;;;;;;4982273;28;20186;-50
2022/09/12 07:19:10;;;;;;;324.70;163.67;;;;;;;;;;4978111;28;20193;-50
2022/09/12 07:21:38;;;;;;;317.77;154.40;;;;;;;;;;4988976;28;20193;-52
2022/09/12 07:24:04;;;;;;;324.77;159.73;;;;;;;;;;4989066;28;20275;-52
2022/09/12 07:26:31;;;;;;;337.97;164.57;;;;;;;;;;4989275;28;20209;-52
2022/09/12 07:28:58;;;;;;;299.93;150.60;;;;;;;;;;4989138;28;20642;-52
2022/09/12 07:31:24;;;;;;;331.77;162.67;;;;;;;;;;4989683;28;20233;-52
2022/09/12 07:33:51;;;;;;;326.97;164.13;;;;;;;;;;4989437;28;20198;-52
2022/09/12 07:36:18;;;;;;;340.33;167.13;;;;;;;;;;4989397;28;20198;-51
2022/09/12 07:38:44;;;;;;;341.65;169.63;;;;;;;;;;4989513;28;20174;-52
2022/09/12 07:41:18;;;;;;;337.05;164.48;;;;;;;;;;4989305;28;20210;-52
2022/09/12 07:43:44;;;;;;;326.40;166.95;;;;;;;;;;4988694;28;20264;-52
2022/09/12 07:46:10;;;;;;;370.48;178.70;;;;;;;;;;4990863;28;20209;-52
2022/09/12 07:48:37;;;;;;;335.15;163.52;;;;;;;;;;4992978;28;20178;-52
2022/09/12 07:51:04;;;;;;;308.17;154.50;;;;;;;;;;4991342;28;20182;-52
2022/09/12 07:53:32;;;;;;;342.35;168.18;;;;;;;;;;4992743;28;20177;-52
2022/09/12 07:55:58;;;;;;;342.65;168.98;;;;;;;;;;4992956;28;20239;-52
2022/09/12 07:58:24;;;;;;;336.65;173.60;;;;;;;;;;4992632;28;20592;-52
2022/09/12 08:00:50;;;;;;;339.98;172.90;;;;;;;;;;4993070;28;20322;-52
2022/09/12 08:03:17;;;;;;;340.95;175.98;;;;;;;;;;4992547;28;20569;-52
2022/09/12 08:05:43;;;;;;;337.17;164.63;;;;;;;;;;4992348;28;20210;-52
2022/09/12 08:08:09;;;;;;;344.03;169.07;;;;;;;;;;4992621;28;20185;-52
2022/09/12 08:10:35;;;;;;;355.40;173.00;;;;;;;;;;4992362;28;20188;-52
2022/09/12 08:13:02;;;;;;;336.85;166.40;;;;;;;;;;4992268;28;20227;-53
2022/09/12 08:15:28;;;;;;;337.40;168.52;;;;;;;;;;4992306;28;20206;-52
2022/09/12 08:17:54;;;;;;;345.70;172.73;;;;;;;;;;4992319;28;20263;-53
2022/09/12 08:20:20;;;;;;;334.98;167.02;;;;;;;;;;4992294;28;20182;-52
2022/09/12 08:22:46;;;;;;;347.52;173.07;;;;;;;;;;4992501;28;20178;-52
2022/09/12 08:25:12;;;;;;;355.20;177.60;;;;;;;;;;4992187;28;20205;-52
2022/09/12 08:27:38;;;;;;;335.25;166.90;;;;;;;;;;4992213;28;20286;-52
2022/09/12 08:30:05;;;;;;;338.80;168.45;;;;;;;;;;4992103;28;20253;-53
2022/09/12 08:32:31;;;;;;;352.52;174.77;;;;;;;;;;4991799;28;20186;-52
2022/09/12 08:34:57;;;;;;;349.35;177.45;;;;;;;;;;4991968;28;20279;-52
2022/09/12 08:37:22;;;;;;;339.20;177.98;;;;;;;;;;4992190;28;20197;-52
2022/09/12 08:39:48;;;;;;;329.77;165.48;;;;;;;;;;4991812;28;20178;-52
2022/09/12 08:42:30;;;;;;;344.38;167.23;;;;;;;;;;4991575;28;20658;-52
2022/09/12 08:45:03;;;;;;;322.52;163.13;;;;;;;;;;4991426;28;20393;-52
2022/09/12 08:47:37;;;;;;;359.17;177.60;;;;;;;;;;4989848;28;20241;-52
2022/09/12 08:50:09;;;;;;;334.52;172.88;;;;;;;;;;4991633;28;20542;-52
2022/09/12 08:52:38;;;;;;;348.88;179.38;;;;;;;;;;4991267;28;20185;-52
2022/09/12 08:55:05;;;;;;;352.10;189.60;;;;;;;;;;4991820;28;20204;-52
2022/09/12 08:57:32;;;;;;;354.57;191.70;;;;;;;;;;4991078;28;20189;-52
2022/09/12 08:59:58;;;;;;;343.80;184.55;;;;;;;;;;4991294;28;20182;-52
2022/09/12 09:02:31;;;;;;;364.60;187.48;;;;;;;;;;4991097;28;20225;-52
2022/09/12 09:05:06;;;;;;;381.13;197.90;;;;;;;;;;4988978;28;20387;-52
2022/09/12 09:07:45;;;;;;;362.38;191.15;;;;;;;;;;4990005;28;20253;-52
2022/09/12 09:10:18;;;;;;;388.88;202.20;;;;;;;;;;4988766;28;20166;-52
2022/09/12 09:12:52;;;;;;;377.45;194.65;;;;;;;;;;4988544;28;20174;-52
2022/09/12 09:15:30;;;;;;;380.10;201.10;;;;;;;;;;4988764;28;20563;-52
2022/09/12 09:18:05;;;;;;;374.90;209.85;;;;;;;;;;4989440;28;20236;-53
2022/09/12 09:20:35;;;;;;;358.35;187.13;;;;;;;;;;4989812;28;20185;-52
2022/09/12 09:23:06;;;;;;;370.02;199.77;;;;;;;;;;4989539;28;20221;-51
2022/09/12 09:25:42;;;;;;;369.45;197.15;;;;;;;;;;4986262;28;20565;-51
2022/09/12 09:28:23;;;;;;;379.88;206.52;;;;;;;;;;4989079;28;20181;-52
2022/09/12 09:30:49;;;;;;;375.80;197.15;;;;;;;;;;4989266;28;20184;-52
2022/09/12 09:33:20;;;;;;;350.13;191.82;;;;;;;;;;4989804;28;20174;-52
2022/09/12 09:35:47;;;;;;;373.52;199.82;;;;;;;;;;4990078;28;20233;-52
2022/09/12 09:38:19;;;;;;;371.48;193.98;;;;;;;;;;4990350;28;20169;-52
2022/09/12 09:41:01;;;;;;;361.35;192.10;;;;;;;;;;4989859;28;20570;-53
2022/09/12 09:43:27;;;;;;;342.70;176.00;;;;;;;;;;4989237;28;20252;-53
2022/09/12 09:45:55;;;;;;;357.65;200.27;;;;;;;;;;4989691;28;20229;-53
2022/09/12 09:48:26;;;;;;;368.10;198.55;;;;;;;;;;4989382;28;20233;-53
2022/09/12 09:50:52;;;;;;;372.65;201.55;;;;;;;;;;4989304;28;20208;-53
2022/09/12 09:53:36;;;;;;;353.77;188.63;;;;;;;;;;4990165;28;20213;-52
2022/09/12 09:56:07;;;;;;;371.98;227.60;;;;;;;;;;4990165;28;20181;-52
2022/09/12 09:58:34;;;;;;;362.33;237.20;;;;;;;;;;4989447;28;20185;-52
2022/09/12 10:01:12;;;;;;;340.75;174.20;;;;;;;;;;4989402;28;20650;-52
2022/09/12 10:03:38;;;;;;;357.13;183.25;;;;;;;;;;4988594;28;20186;-53
2022/09/12 10:06:21;;;;;;;381.90;200.73;;;;;;;;;;4988848;28;20201;-52
2022/09/12 10:08:48;;;;;;;359.85;182.65;;;;;;;;;;4988185;28;20150;-53
2022/09/12 10:11:22;;;;;;;359.27;182.50;;;;;;;;;;4988863;28;20229;-53
2022/09/12 10:13:53;;;;;;;367.98;193.93;;;;;;;;;;4988742;28;20554;-53
2022/09/12 10:16:21;;;;;;;365.00;190.93;;;;;;;;;;4988699;28;20585;-53
2022/09/12 10:18:49;;;;;;;363.27;207.10;;;;;;;;;;4989424;28;20236;-53
2022/09/12 10:21:28;;;;;;;377.95;208.07;;;;;;;;;;4988651;28;20261;-53
2022/09/12 10:24:03;;;;;;;368.55;192.80;;;;;;;;;;4989095;28;20193;-52
2022/09/12 10:26:39;;;;;;;370.02;196.85;;;;;;;;;;4988773;28;20287;-51
2022/09/12 10:29:16;;;;;;;372.00;200.30;;;;;;;;;;4989225;28;20185;-51
2022/09/12 10:31:48;;;;;;;370.73;200.68;;;;;;;;;;4988648;28;20169;-51
2022/09/12 10:34:20;;;;;;;338.90;189.95;;;;;;;;;;4988493;28;20756;-51
2022/09/12 10:36:46;;;;;;;375.63;198.63;;;;;;;;;;4988495;28;20209;-51
2022/09/12 10:39:18;;;;;;;371.85;197.38;;;;;;;;;;4989067;28;20177;-51
2022/09/12 10:41:44;;;;;;;354.98;193.52;;;;;;;;;;4988439;28;20330;-51
2022/09/12 10:44:17;;;;;;;385.08;199.90;;;;;;;;;;4988714;28;20405;-51
2022/09/12 10:46:43;;;;;;;385.08;298.25;;;;;;;;;;4988333;28;20190;-51
2022/09/12 10:49:23;;;;;;;363.35;217.93;;;;;;;;;;4988775;28;20188;-51
2022/09/12 10:51:50;;;;;;;348.58;214.18;;;;;;;;;;4988737;28;20518;-50
2022/09/12 10:54:18;;;;;;;381.13;255.35;;;;;;;;;;4988408;28;20231;-51
2022/09/12 10:57:02;;;;;;;379.67;257.35;;;;;;;;;;4988137;28;20188;-50
2022/09/12 10:59:39;;;;;;;376.27;235.30;;;;;;;;;;4988644;28;20189;-51
2022/09/12 11:02:17;;;;;;;365.27;242.05;;;;;;;;;;4988038;28;20733;-51
2022/09/12 11:05:12;;;;;;;369.65;218.90;;;;;;;;;;4988178;28;20205;-52
2022/09/12 11:07:38;;;;;;;376.10;250.43;;;;;;;;;;4984239;28;20191;-51
2022/09/12 11:10:10;;;;;;;403.13;267.20;;;;;;;;;;4987911;28;20185;-51
2022/09/12 11:12:42;;;;;;;374.00;240.63;;;;;;;;;;4989038;28;20300;-52
2022/09/12 11:15:34;;;;;;;378.23;221.27;;;;;;;;;;4989179;28;20220;-52
2022/09/12 11:18:04;;;;;;;367.88;229.07;;;;;;;;;;4988763;28;20170;-53
2022/09/12 11:20:48;;;;;;;373.33;235.90;;;;;;;;;;4990995;28;20202;-52
2022/09/12 11:23:17;;;;;;;386.67;268.10;;;;;;;;;;4992088;28;20238;-53
2022/09/12 11:26:08;;;;;;;356.75;242.82;;;;;;;;;;4992104;28;20212;-53
2022/09/12 11:28:43;;;;;;;384.15;241.60;;;;;;;;;;4991784;28;20169;-52
2022/09/12 11:31:22;;;;;;;372.55;235.77;;;;;;;;;;4991711;28;20225;-53
2022/09/12 11:33:51;;;;;;;368.40;233.60;;;;;;;;;;4992139;28;20609;-53
2022/09/12 11:36:53;;;;;;;366.25;235.90;;;;;;;;;;4991788;28;20253;-53
2022/09/12 11:39:38;;;;;;;360.63;205.52;;;;;;;;;;4950283;29;20186;-53
2022/09/12 11:42:05;;;;;;;392.02;257.13;;;;;;;;;;4988413;28;20650;-53
2022/09/12 11:44:37;;;;;;;367.20;239.13;;;;;;;;;;4991684;28;20201;-53
2022/09/12 11:47:09;;;;;;;391.95;277.10;;;;;;;;;;4991278;28;20422;-52
2022/09/12 11:49:46;;;;;;;391.30;275.42;;;;;;;;;;4991838;28;20252;-52
2022/09/12 11:52:18;;;;;;;378.42;225.25;;;;;;;;;;4991823;28;20245;-53
2022/09/12 11:54:44;;;;;;;369.27;228.77;;;;;;;;;;4991744;28;20207;-53
2022/09/12 11:57:11;;;;;;;384.35;231.18;;;;;;;;;;4991158;28;20586;-53
2022/09/12 11:59:43;;;;;;;371.92;243.27;;;;;;;;;;4989996;28;20216;-52
2022/09/12 12:02:24;;;;;;;393.23;267.13;;;;;;;;;;4991198;28;20276;-53
2022/09/12 12:05:16;;;;;;;391.60;268.90;;;;;;;;;;4991484;28;20605;-52
2022/09/12 12:07:44;;;;;;;366.80;230.38;;;;;;;;;;4991838;28;20162;-53
2022/09/12 12:10:28;;;;;;;387.83;242.05;;;;;;;;;;4990881;28;20177;-53
2022/09/12 12:12:55;;;;;;;373.13;238.98;;;;;;;;;;4991237;28;20197;-52
2022/09/12 12:15:22;;;;;;;385.00;244.40;;;;;;;;;;4990851;28;20616;-53
2022/09/12 12:18:01;;;;;;;385.88;266.75;;;;;;;;;;4992174;28;20188;-53
2022/09/12 12:20:28;;;;;;;377.00;225.98;;;;;;;;;;4991316;28;20174;-52
2022/09/12 12:22:54;;;;;;;380.35;242.90;;;;;;;;;;4990794;28;20276;-52
2022/09/12 12:25:41;;;;;;;394.20;252.85;;;;;;;;;;4990866;28;20677;-52
2022/09/12 12:28:08;;;;;;;404.80;255.52;;;;;;;;;;4990704;28;20163;-52
2022/09/12 12:30:40;;;;;;;393.25;279.27;;;;;;;;;;4990697;28;20295;-52
2022/09/12 12:33:09;;;;;;;414.98;275.55;;;;;;;;;;4989457;28;20178;-52
2022/09/12 12:35:38;;;;;;;416.63;305.73;;;;;;;;;;4991034;28;20197;-52
2022/09/12 12:38:24;;;;;;;388.80;264.98;;;;;;;;;;4990594;28;20228;-52
2022/09/12 12:40:50;;;;;;;393.77;267.77;;;;;;;;;;4990237;28;20270;-53
2022/09/12 12:43:30;;;;;;;409.10;281.00;;;;;;;;;;4990103;28;20280;-53
2022/09/12 12:46:01;;;;;;;394.90;269.02;;;;;;;;;;4989815;28;20268;-52
2022/09/12 12:48:29;;;;;;;377.95;285.85;;;;;;;;;;4990427;28;20177;-52
2022/09/12 12:51:14;;;;;;;386.38;280.23;;;;;;;;;;4990341;28;20178;-53
2022/09/12 12:53:40;;;;;;;392.27;244.43;;;;;;;;;;4989959;28;20154;-53
2022/09/12 12:56:24;;;;;;;388.45;291.45;;;;;;;;;;4989754;28;20178;-53
2022/09/12 12:58:56;;;;;;;395.85;271.25;;;;;;;;;;4989535;28;20190;-52
2022/09/12 13:01:23;;;;;;;392.77;281.83;;;;;;;;;;4989806;28;20170;-53
2022/09/12 13:04:03;;;;;;;403.95;292.60;;;;;;;;;;4989865;28;20678;-53
2022/09/12 13:06:31;;;;;;;396.65;284.92;;;;;;;;;;4989848;28;20209;-53
2022/09/12 13:09:08;;;;;;;407.83;283.52;;;;;;;;;;4989766;28;20665;-52
2022/09/12 13:11:36;;;;;;;400.00;279.92;;;;;;;;;;4989442;28;20153;-53
2022/09/12 13:14:03;;;;;;;399.85;294.67;;;;;;;;;;4989520;28;20194;-53
2022/09/12 13:16:31;;;;;;;405.83;287.77;;;;;;;;;;4989376;28;20182;-53
2022/09/12 13:19:00;;;;;;;409.77;290.75;;;;;;;;;;4989232;28;20185;-53
2022/09/12 13:21:26;;;;;;;403.40;297.55;;;;;;;;;;4989197;28;20208;-52
2022/09/12 13:24:03;;;;;;;399.67;285.10;;;;;;;;;;4989469;28;20202;-53
2022/09/12 13:26:33;;;;;;;388.35;278.73;;;;;;;;;;4988980;28;20295;-53
2022/09/12 13:29:11;;;;;;;416.23;315.98;;;;;;;;;;4989433;28;20177;-53
2022/09/12 13:31:38;;;;;;;410.48;282.70;;;;;;;;;;4989097;28;20178;-53
2022/09/12 13:34:05;;;;;;;401.08;283.83;;;;;;;;;;4989190;28;20190;-53
2022/09/12 13:36:37;;;;;;;398.38;289.77;;;;;;;;;;4989286;28;20186;-52
2022/09/12 13:39:12;;;;;;;390.67;281.85;;;;;;;;;;4989503;28;20297;-53
2022/09/12 13:41:57;;;;;;;395.25;267.98;;;;;;;;;;4989112;28;20204;-52
2022/09/12 13:44:23;;;;;;;388.58;254.65;;;;;;;;;;4989092;28;20469;-53
2022/09/12 13:46:50;;;;;;;412.88;310.05;;;;;;;;;;4988627;28;20201;-52
2022/09/12 13:49:34;;;;;;;393.48;284.70;;;;;;;;;;4988860;28;20177;-52
2022/09/12 13:52:02;;;;;;;394.48;286.17;;;;;;;;;;4989096;28;20170;-53
2022/09/12 13:54:29;;;;;;;386.73;277.10;;;;;;;;;;4988937;28;20619;-53
2022/09/12 13:56:55;;;;;;;408.67;254.65;;;;;;;;;;4988694;28;20181;-53
2022/09/12 13:59:21;;;;;;;390.40;250.48;;;;;;;;;;4988610;28;20650;-53
2022/09/12 14:01:48;;;;;;;401.50;249.20;;;;;;;;;;4988454;28;20558;-53
2022/09/12 14:06:59;;;;;;;384.63;242.70;;;;;;;;;;4988194;28;20205;-53
2022/09/12 14:09:29;;;;;;;409.30;341.48;;;;;;;;;;4988493;28;20178;-53